sensor_id;sensor_type;location;lat;lon;timestamp;pressure;altitude;pressure_sealevel;temperature;humidity
51829;BME280;37881;48.024;8.774;2022-11-12T00:00:56;95389.91;;;2.93;100.00
51829;BME280;37881;48.024;8.774;2022-11-12T00:03:25;95391.03;;;2.92;100.00
51829;BME280;37881;48.024;8.774;2022-11-12T00:05:52;95390.50;;;2.98;100.00
51829;BME280;37881;48.024;8.774;2022-11-12T00:08:19;95389.25;;;2.96;100.00
51829;BME280;37881;48.024;8.774;2022-11-12T00:10:46;95386.25;;;2.89;100.00
51829;BME280;37881;48.024;8.774;2022-11-12T00:13:13;95391.50;;;2.94;100.00
51829;BME280;37881;48.024;8.774;2022-11-12T00:15:40;95388.69;;;2.82;100.00
51829;BME280;37881;48.024;8.774;2022-11-12T00:18:07;95395.25;;;2.80;100.00
51829;BME280;37881;48.024;8.774;2022-11-12T00:20:34;95398.69;;;2.90;100.00
51829;BME280;37881;48.024;8.774;2022-11-12T00:23:01;95397.63;;;2.82;100.00
51829;BME280;37881;48.024;8.774;2022-11-12T00:25:27;95402.91;;;2.78;100.00
51829;BME280;37881;48.024;8.774;2022-11-12T00:28:03;95410.91;;;2.75;100.00
51829;BME280;37881;48.024;8.774;2022-11-12T00:30:30;95404.38;;;2.76;100.00
51829;BME280;37881;48.024;8.774;2022-11-12T00:33:00;95402.69;;;2.63;100.00
51829;BME280;37881;48.024;8.774;2022-11-12T00:35:30;95409.19;;;2.70;100.00
51829;BME280;37881;48.024;8.774;2022-11-12T00:37:57;95406.09;;;2.80;100.00
51829;BME280;37881;48.024;8.774;2022-11-12T00:40:24;95410.06;;;2.83;100.00
51829;BME280;37881;48.024;8.774;2022-11-12T00:42:51;95405.63;;;2.78;100.00
51829;BME280;37881;48.024;8.774;2022-11-12T00:45:19;95402.16;;;2.69;100.00
51829;BME280;37881;48.024;8.774;2022-11-12T00:47:45;95414.78;;;2.65;100.00
51829;BME280;37881;48.024;8.774;2022-11-12T00:50:12;95401.84;;;2.71;100.00
51829;BME280;37881;48.024;8.774;2022-11-12T00:52:41;95407.13;;;2.67;100.00
51829;BME280;37881;48.024;8.774;2022-11-12T00:55:08;95402.41;;;2.55;100.00
51829;BME280;37881;48.024;8.774;2022-11-12T00:57:35;95405.25;;;2.59;100.00
51829;BME280;37881;48.024;8.774;2022-11-12T01:00:03;95408.28;;;2.57;100.00
51829;BME280;37881;48.024;8.774;2022-11-12T01:02:30;95412.06;;;2.65;100.00
51829;BME280;37881;48.024;8.774;2022-11-12T01:05:04;95406.47;;;2.70;100.00
51829;BME280;37881;48.024;8.774;2022-11-12T01:07:31;95405.34;;;2.71;100.00
51829;BME280;37881;48.024;8.774;2022-11-12T01:09:57;95404.69;;;2.74;100.00
51829;BME280;37881;48.024;8.774;2022-11-12T01:12:24;95398.81;;;2.72;100.00
51829;BME280;37881;48.024;8.774;2022-11-12T01:14:50;95391.78;;;2.71;100.00
51829;BME280;37881;48.024;8.774;2022-11-12T01:17:18;95399.69;;;2.55;100.00
51829;BME280;37881;48.024;8.774;2022-11-12T01:19:44;95394.28;;;2.55;100.00
51829;BME280;37881;48.024;8.774;2022-11-12T01:22:11;95395.72;;;2.53;100.00
51829;BME280;37881;48.024;8.774;2022-11-12T01:24:38;95393.22;;;2.48;100.00
51829;BME280;37881;48.024;8.774;2022-11-12T01:27:04;95390.97;;;2.50;100.00
51829;BME280;37881;48.024;8.774;2022-11-12T01:29:31;95386.19;;;2.47;100.00
51829;BME280;37881;48.024;8.774;2022-11-12T01:31:58;95384.16;;;2.44;100.00
51829;BME280;37881;48.024;8.774;2022-11-12T01:34:25;95375.97;;;2.52;100.00
51829;BME280;37881;48.024;8.774;2022-11-12T01:36:52;95367.75;;;2.40;100.00
51829;BME280;37881;48.024;8.774;2022-11-12T01:39:18;95366.25;;;2.22;100.00
51829;BME280;37881;48.024;8.774;2022-11-12T01:41:45;95365.66;;;2.16;100.00
51829;BME280;37881;48.024;8.774;2022-11-12T01:49:39;95366.22;;;1.92;100.00
51829;BME280;37881;48.024;8.774;2022-11-12T01:52:33;95357.44;;;1.95;100.00
51829;BME280;37881;48.024;8.774;2022-11-12T01:55:05;95355.56;;;1.87;100.00
51829;BME280;37881;48.024;8.774;2022-11-12T01:57:44;95357.63;;;1.90;100.00
51829;BME280;37881;48.024;8.774;2022-11-12T02:00:14;95352.84;;;1.95;100.00
51829;BME280;37881;48.024;8.774;2022-11-12T02:02:45;95347.94;;;1.80;100.00
51829;BME280;37881;48.024;8.774;2022-11-12T02:05:16;95352.13;;;1.69;100.00
51829;BME280;37881;48.024;8.774;2022-11-12T02:07:44;95345.13;;;1.68;100.00
51829;BME280;37881;48.024;8.774;2022-11-12T02:10:12;95338.13;;;1.67;100.00
51829;BME280;37881;48.024;8.774;2022-11-12T02:12:40;95344.97;;;1.64;100.00
51829;BME280;37881;48.024;8.774;2022-11-12T02:15:25;95345.59;;;1.70;100.00
51829;BME280;37881;48.024;8.774;2022-11-12T02:17:52;95336.34;;;1.71;100.00
51829;BME280;37881;48.024;8.774;2022-11-12T02:20:19;95337.50;;;1.70;100.00
51829;BME280;37881;48.024;8.774;2022-11-12T02:22:46;95340.00;;;1.75;100.00
51829;BME280;37881;48.024;8.774;2022-11-12T02:25:18;95342.06;;;1.78;100.00
51829;BME280;37881;48.024;8.774;2022-11-12T02:27:47;95348.19;;;1.57;100.00
51829;BME280;37881;48.024;8.774;2022-11-12T02:30:18;95338.44;;;1.74;100.00
51829;BME280;37881;48.024;8.774;2022-11-12T02:32:46;95346.81;;;1.81;100.00
51829;BME280;37881;48.024;8.774;2022-11-12T02:35:12;95339.03;;;1.79;100.00
51829;BME280;37881;48.024;8.774;2022-11-12T02:37:39;95343.69;;;1.70;100.00
51829;BME280;37881;48.024;8.774;2022-11-12T02:40:06;95340.00;;;1.75;100.00
51829;BME280;37881;48.024;8.774;2022-11-12T02:42:33;95339.22;;;1.74;100.00
51829;BME280;37881;48.024;8.774;2022-11-12T02:44:59;95332.06;;;1.70;100.00
51829;BME280;37881;48.024;8.774;2022-11-12T02:47:26;95332.75;;;1.58;100.00
51829;BME280;37881;48.024;8.774;2022-11-12T02:49:53;95338.78;;;1.55;100.00
51829;BME280;37881;48.024;8.774;2022-11-12T02:52:19;95337.25;;;1.45;100.00
51829;BME280;37881;48.024;8.774;2022-11-12T02:54:46;95330.06;;;1.40;100.00
51829;BME280;37881;48.024;8.774;2022-11-12T02:57:13;95334.19;;;1.47;100.00
51829;BME280;37881;48.024;8.774;2022-11-12T02:59:39;95335.47;;;1.49;100.00
51829;BME280;37881;48.024;8.774;2022-11-12T03:02:06;95333.53;;;1.58;100.00
51829;BME280;37881;48.024;8.774;2022-11-12T03:04:32;95335.13;;;1.51;100.00
51829;BME280;37881;48.024;8.774;2022-11-12T03:06:59;95333.75;;;1.36;100.00
51829;BME280;37881;48.024;8.774;2022-11-12T03:09:26;95334.66;;;1.49;100.00
51829;BME280;37881;48.024;8.774;2022-11-12T03:11:52;95334.53;;;1.45;100.00
51829;BME280;37881;48.024;8.774;2022-11-12T03:14:19;95334.69;;;1.40;100.00
51829;BME280;37881;48.024;8.774;2022-11-12T03:16:46;95333.13;;;1.39;100.00
51829;BME280;37881;48.024;8.774;2022-11-12T03:19:12;95333.72;;;1.45;100.00
51829;BME280;37881;48.024;8.774;2022-11-12T03:21:39;95326.06;;;1.55;100.00
51829;BME280;37881;48.024;8.774;2022-11-12T03:24:06;95327.38;;;1.49;100.00
51829;BME280;37881;48.024;8.774;2022-11-12T03:26:33;95332.63;;;1.46;100.00
51829;BME280;37881;48.024;8.774;2022-11-12T03:29:01;95325.44;;;1.50;100.00
51829;BME280;37881;48.024;8.774;2022-11-12T03:31:28;95326.69;;;1.61;100.00
51829;BME280;37881;48.024;8.774;2022-11-12T03:33:55;95331.50;;;1.55;100.00
51829;BME280;37881;48.024;8.774;2022-11-12T03:36:21;95332.13;;;1.52;100.00
51829;BME280;37881;48.024;8.774;2022-11-12T03:38:48;95335.13;;;1.51;100.00
51829;BME280;37881;48.024;8.774;2022-11-12T03:41:15;95323.38;;;1.47;100.00
51829;BME280;37881;48.024;8.774;2022-11-12T03:43:41;95311.13;;;1.40;100.00
51829;BME280;37881;48.024;8.774;2022-11-12T03:46:08;95317.84;;;1.34;100.00
51829;BME280;37881;48.024;8.774;2022-11-12T03:48:34;95324.69;;;1.32;100.00
51829;BME280;37881;48.024;8.774;2022-11-12T03:51:01;95320.88;;;1.33;100.00
51829;BME280;37881;48.024;8.774;2022-11-12T03:53:28;95320.56;;;1.26;100.00
51829;BME280;37881;48.024;8.774;2022-11-12T03:55:54;95319.63;;;1.22;100.00
51829;BME280;37881;48.024;8.774;2022-11-12T03:58:21;95316.94;;;1.13;100.00
51829;BME280;37881;48.024;8.774;2022-11-12T04:00:48;95316.78;;;1.09;100.00
51829;BME280;37881;48.024;8.774;2022-11-12T04:03:15;95312.16;;;1.10;100.00
51829;BME280;37881;48.024;8.774;2022-11-12T04:05:41;95308.03;;;1.12;100.00
51829;BME280;37881;48.024;8.774;2022-11-12T04:08:27;95309.00;;;1.08;100.00
51829;BME280;37881;48.024;8.774;2022-11-12T04:11:05;95318.38;;;1.02;100.00
51829;BME280;37881;48.024;8.774;2022-11-12T04:13:33;95318.22;;;0.98;100.00
51829;BME280;37881;48.024;8.774;2022-11-12T04:16:08;95317.91;;;0.99;100.00
51829;BME280;37881;48.024;8.774;2022-11-12T04:18:56;95319.00;;;0.98;100.00
51829;BME280;37881;48.024;8.774;2022-11-12T04:21:47;95329.22;;;0.93;100.00
51829;BME280;37881;48.024;8.774;2022-11-12T04:24:27;95326.81;;;0.91;100.00
51829;BME280;37881;48.024;8.774;2022-11-12T04:29:42;95340.03;;;0.93;100.00
51829;BME280;37881;48.024;8.774;2022-11-12T04:32:27;95336.38;;;0.89;100.00
51829;BME280;37881;48.024;8.774;2022-11-12T04:34:54;95338.25;;;0.88;100.00
51829;BME280;37881;48.024;8.774;2022-11-12T04:37:23;95340.97;;;0.88;100.00
51829;BME280;37881;48.024;8.774;2022-11-12T04:39:51;95332.38;;;0.86;100.00
51829;BME280;37881;48.024;8.774;2022-11-12T04:42:18;95339.22;;;0.84;100.00
51829;BME280;37881;48.024;8.774;2022-11-12T04:45:08;95332.88;;;0.79;100.00
51829;BME280;37881;48.024;8.774;2022-11-12T04:47:39;95338.44;;;0.83;100.00
51829;BME280;37881;48.024;8.774;2022-11-12T04:50:13;95337.66;;;0.83;100.00
51829;BME280;37881;48.024;8.774;2022-11-12T04:52:40;95328.09;;;0.76;100.00
51829;BME280;37881;48.024;8.774;2022-11-12T04:55:07;95322.84;;;0.71;100.00
51829;BME280;37881;48.024;8.774;2022-11-12T04:57:34;95325.56;;;0.71;100.00
51829;BME280;37881;48.024;8.774;2022-11-12T05:00:03;95316.19;;;0.69;100.00
51829;BME280;37881;48.024;8.774;2022-11-12T05:02:30;95322.22;;;0.66;100.00
51829;BME280;37881;48.024;8.774;2022-11-12T05:04:56;95329.06;;;0.63;100.00
51829;BME280;37881;48.024;8.774;2022-11-12T05:07:23;95320.78;;;0.68;100.00
51829;BME280;37881;48.024;8.774;2022-11-12T05:09:50;95318.41;;;0.67;100.00
51829;BME280;37881;48.024;8.774;2022-11-12T05:12:16;95319.03;;;0.55;100.00
51829;BME280;37881;48.024;8.774;2022-11-12T05:14:43;95320.78;;;0.51;100.00
51829;BME280;37881;48.024;8.774;2022-11-12T05:17:09;95323.78;;;0.49;100.00
51829;BME280;37881;48.024;8.774;2022-11-12T05:19:36;95330.16;;;0.45;100.00
51829;BME280;37881;48.024;8.774;2022-11-12T05:22:03;95329.97;;;0.50;100.00
51829;BME280;37881;48.024;8.774;2022-11-12T05:24:41;95322.34;;;0.43;100.00
51829;BME280;37881;48.024;8.774;2022-11-12T05:27:18;95327.94;;;0.47;100.00
51829;BME280;37881;48.024;8.774;2022-11-12T05:29:46;95322.06;;;0.53;100.00
51829;BME280;37881;48.024;8.774;2022-11-12T05:32:14;95329.53;;;0.56;100.00
51829;BME280;37881;48.024;8.774;2022-11-12T05:34:41;95327.63;;;0.66;100.00
51829;BME280;37881;48.024;8.774;2022-11-12T05:37:09;95325.22;;;0.64;100.00
51829;BME280;37881;48.024;8.774;2022-11-12T05:39:37;95318.72;;;0.56;100.00
51829;BME280;37881;48.024;8.774;2022-11-12T05:42:04;95320.00;;;0.59;100.00
51829;BME280;37881;48.024;8.774;2022-11-12T05:44:39;95317.13;;;0.55;100.00
51829;BME280;37881;48.024;8.774;2022-11-12T05:47:05;95321.25;;;0.53;100.00
51829;BME280;37881;48.024;8.774;2022-11-12T05:49:32;95320.31;;;0.57;100.00
51829;BME280;37881;48.024;8.774;2022-11-12T05:51:59;95322.69;;;0.59;100.00
51829;BME280;37881;48.024;8.774;2022-11-12T05:54:25;95319.19;;;0.58;100.00
51829;BME280;37881;48.024;8.774;2022-11-12T05:56:52;95326.19;;;0.51;100.00
51829;BME280;37881;48.024;8.774;2022-11-12T05:59:19;95326.81;;;0.48;100.00
51829;BME280;37881;48.024;8.774;2022-11-12T06:01:45;95320.75;;;0.42;100.00
51829;BME280;37881;48.024;8.774;2022-11-12T06:04:13;95322.66;;;0.42;100.00
51829;BME280;37881;48.024;8.774;2022-11-12T06:06:41;95313.13;;;0.35;100.00
51829;BME280;37881;48.024;8.774;2022-11-12T06:09:08;95320.63;;;0.38;100.00
51829;BME280;37881;48.024;8.774;2022-11-12T06:11:36;95325.69;;;0.40;100.00
51829;BME280;37881;48.024;8.774;2022-11-12T06:14:03;95319.97;;;0.33;100.00
51829;BME280;37881;48.024;8.774;2022-11-12T06:16:30;95329.16;;;0.32;100.00
51829;BME280;37881;48.024;8.774;2022-11-12T06:18:58;95329.16;;;0.32;100.00
51829;BME280;37881;48.024;8.774;2022-11-12T06:21:24;95337.13;;;0.37;100.00
51829;BME280;37881;48.024;8.774;2022-11-12T06:23:57;95342.53;;;0.37;100.00
51829;BME280;37881;48.024;8.774;2022-11-12T06:26:28;95335.88;;;0.43;100.00
51829;BME280;37881;48.024;8.774;2022-11-12T06:28:55;95329.34;;;0.44;100.00
51829;BME280;37881;48.024;8.774;2022-11-12T06:31:22;95341.44;;;0.47;100.00
51829;BME280;37881;48.024;8.774;2022-11-12T06:33:49;95340.63;;;0.46;100.00
51829;BME280;37881;48.024;8.774;2022-11-12T06:36:18;95339.34;;;0.44;100.00
51829;BME280;37881;48.024;8.774;2022-11-12T06:38:45;95335.38;;;0.50;100.00
51829;BME280;37881;48.024;8.774;2022-11-12T06:41:12;95340.94;;;0.45;100.00
51829;BME280;37881;48.024;8.774;2022-11-12T06:43:40;95350.00;;;0.49;100.00
51829;BME280;37881;48.024;8.774;2022-11-12T06:46:12;95340.81;;;0.58;100.00
51829;BME280;37881;48.024;8.774;2022-11-12T06:48:39;95337.81;;;0.69;100.00
51829;BME280;37881;48.024;8.774;2022-11-12T06:51:18;95340.31;;;0.74;100.00
51829;BME280;37881;48.024;8.774;2022-11-12T06:53:45;95344.78;;;0.78;100.00
51829;BME280;37881;48.024;8.774;2022-11-12T06:56:13;95336.03;;;0.82;100.00
51829;BME280;37881;48.024;8.774;2022-11-12T06:58:40;95341.75;;;0.80;100.00
51829;BME280;37881;48.024;8.774;2022-11-12T07:01:15;95330.00;;;0.76;100.00
51829;BME280;37881;48.024;8.774;2022-11-12T07:03:43;95338.75;;;0.82;100.00
51829;BME280;37881;48.024;8.774;2022-11-12T07:06:15;95338.28;;;0.79;100.00
51829;BME280;37881;48.024;8.774;2022-11-12T07:08:46;95346.06;;;0.90;100.00
51829;BME280;37881;48.024;8.774;2022-11-12T07:11:15;95353.38;;;0.98;100.00
51829;BME280;37881;48.024;8.774;2022-11-12T07:13:42;95359.25;;;1.00;100.00
51829;BME280;37881;48.024;8.774;2022-11-12T07:16:13;95351.47;;;1.07;100.00
51829;BME280;37881;48.024;8.774;2022-11-12T07:18:45;95362.44;;;1.11;100.00
51829;BME280;37881;48.024;8.774;2022-11-12T07:21:14;95365.13;;;1.19;100.00
51829;BME280;37881;48.024;8.774;2022-11-12T07:23:41;95363.81;;;1.34;100.00
51829;BME280;37881;48.024;8.774;2022-11-12T07:26:28;95361.91;;;1.44;100.00
51829;BME280;37881;48.024;8.774;2022-11-12T07:28:54;95357.22;;;1.70;100.00
51829;BME280;37881;48.024;8.774;2022-11-12T07:31:22;95365.66;;;1.69;100.00
51829;BME280;37881;48.024;8.774;2022-11-12T07:33:49;95372.09;;;1.94;100.00
51829;BME280;37881;48.024;8.774;2022-11-12T07:36:17;95374.34;;;1.92;100.00
51829;BME280;37881;48.024;8.774;2022-11-12T07:38:45;95365.09;;;1.93;100.00
51829;BME280;37881;48.024;8.774;2022-11-12T07:41:12;95365.56;;;1.95;100.00
51829;BME280;37881;48.024;8.774;2022-11-12T07:43:41;95363.31;;;2.06;100.00
51829;BME280;37881;48.024;8.774;2022-11-12T07:46:29;95354.63;;;1.91;100.00
51829;BME280;37881;48.024;8.774;2022-11-12T07:48:56;95358.53;;;2.03;100.00
51829;BME280;37881;48.024;8.774;2022-11-12T07:51:25;95362.22;;;1.98;100.00
51829;BME280;37881;48.024;8.774;2022-11-12T07:53:53;95368.41;;;1.98;100.00
51829;BME280;37881;48.024;8.774;2022-11-12T07:56:26;95353.56;;;2.13;100.00
51829;BME280;37881;48.024;8.774;2022-11-12T07:58:53;95356.78;;;2.36;100.00
51829;BME280;37881;48.024;8.774;2022-11-12T08:01:36;95359.25;;;2.50;100.00
51829;BME280;37881;48.024;8.774;2022-11-12T08:04:05;95357.22;;;2.89;100.00
51829;BME280;37881;48.024;8.774;2022-11-12T08:06:33;95354.81;;;2.88;100.00
51829;BME280;37881;48.024;8.774;2022-11-12T08:09:02;95348.75;;;2.91;100.00
51829;BME280;37881;48.024;8.774;2022-11-12T08:11:30;95358.28;;;3.18;100.00
51829;BME280;37881;48.024;8.774;2022-11-12T08:13:57;95356.19;;;3.82;100.00
51829;BME280;37881;48.024;8.774;2022-11-12T08:16:24;95355.31;;;4.14;100.00
51829;BME280;37881;48.024;8.774;2022-11-12T08:18:50;95350.44;;;4.45;99.76
51829;BME280;37881;48.024;8.774;2022-11-12T08:21:18;95348.06;;;4.68;97.28
51829;BME280;37881;48.024;8.774;2022-11-12T08:23:45;95352.38;;;4.44;99.00
51829;BME280;37881;48.024;8.774;2022-11-12T08:26:14;95361.25;;;4.29;97.37
51829;BME280;37881;48.024;8.774;2022-11-12T08:28:41;95354.53;;;4.02;98.78
51829;BME280;37881;48.024;8.774;2022-11-12T08:31:10;95352.50;;;3.98;98.44
51829;BME280;37881;48.024;8.774;2022-11-12T08:33:37;95352.97;;;4.13;98.29
51829;BME280;37881;48.024;8.774;2022-11-12T08:36:06;95359.97;;;4.14;98.39
51829;BME280;37881;48.024;8.774;2022-11-12T08:38:34;95369.47;;;4.45;97.24
51829;BME280;37881;48.024;8.774;2022-11-12T08:41:02;95362.41;;;4.93;95.94
51829;BME280;37881;48.024;8.774;2022-11-12T08:43:29;95355.00;;;5.62;93.76
51829;BME280;37881;48.024;8.774;2022-11-12T08:46:00;95353.50;;;6.09;90.05
51829;BME280;37881;48.024;8.774;2022-11-12T08:48:28;95362.94;;;5.83;87.97
51829;BME280;37881;48.024;8.774;2022-11-12T08:50:56;95351.44;;;5.74;90.42
51829;BME280;37881;48.024;8.774;2022-11-12T08:53:24;95350.38;;;5.78;90.83
51829;BME280;37881;48.024;8.774;2022-11-12T08:55:54;95353.16;;;6.42;86.95
51829;BME280;37881;48.024;8.774;2022-11-12T08:58:23;95354.97;;;6.54;85.33
51829;BME280;37881;48.024;8.774;2022-11-12T09:00:51;95354.22;;;5.62;89.41
51829;BME280;37881;48.024;8.774;2022-11-12T09:03:20;95356.63;;;5.79;89.51
51829;BME280;37881;48.024;8.774;2022-11-12T09:05:48;95363.72;;;5.96;87.72
51829;BME280;37881;48.024;8.774;2022-11-12T09:08:17;95348.06;;;6.09;88.65
51829;BME280;37881;48.024;8.774;2022-11-12T09:10:44;95347.47;;;5.87;87.77
51829;BME280;37881;48.024;8.774;2022-11-12T09:13:11;95341.84;;;5.64;89.31
51829;BME280;37881;48.024;8.774;2022-11-12T09:15:39;95341.94;;;6.12;89.23
51829;BME280;37881;48.024;8.774;2022-11-12T09:18:10;95341.59;;;5.85;89.13
51829;BME280;37881;48.024;8.774;2022-11-12T09:20:37;95335.59;;;6.75;84.23
51829;BME280;37881;48.024;8.774;2022-11-12T09:23:10;95343.19;;;6.50;85.49
51829;BME280;37881;48.024;8.774;2022-11-12T09:25:37;95339.09;;;8.15;79.25
51829;BME280;37881;48.024;8.774;2022-11-12T09:28:12;95329.16;;;9.71;72.28
51829;BME280;37881;48.024;8.774;2022-11-12T09:30:45;95326.00;;;10.10;70.43
51829;BME280;37881;48.024;8.774;2022-11-12T09:33:13;95320.34;;;10.85;66.45
51829;BME280;37881;48.024;8.774;2022-11-12T09:35:40;95323.22;;;10.47;66.92
51829;BME280;37881;48.024;8.774;2022-11-12T09:38:07;95328.38;;;9.70;70.01
51829;BME280;37881;48.024;8.774;2022-11-12T09:41:37;95326.03;;;10.54;67.34
51829;BME280;37881;48.024;8.774;2022-11-12T09:43:49;95328.31;;;10.08;68.92
51829;BME280;37881;48.024;8.774;2022-11-12T09:51:40;95326.81;;;9.73;69.26
51829;BME280;37881;48.024;8.774;2022-11-12T09:54:21;95327.44;;;8.95;73.07
51829;BME280;37881;48.024;8.774;2022-11-12T09:56:49;95329.91;;;10.09;69.19
51829;BME280;37881;48.024;8.774;2022-11-12T09:59:16;95314.25;;;10.54;67.68
51829;BME280;37881;48.024;8.774;2022-11-12T10:12:50;95315.69;;;11.87;63.42
51829;BME280;37881;48.024;8.774;2022-11-12T10:15:47;95306.22;;;11.81;63.18
51829;BME280;37881;48.024;8.774;2022-11-12T10:18:50;95306.19;;;11.67;64.16
51829;BME280;37881;48.024;8.774;2022-11-12T10:24:02;95297.81;;;13.61;59.12
51829;BME280;37881;48.024;8.774;2022-11-12T10:26:33;95301.09;;;13.30;60.19
51829;BME280;37881;48.024;8.774;2022-11-12T10:31:33;95291.63;;;13.24;61.03
51829;BME280;37881;48.024;8.774;2022-11-12T10:34:12;95292.50;;;12.92;62.31
51829;BME280;37881;48.024;8.774;2022-11-12T10:37:04;95287.69;;;13.29;60.77
51829;BME280;37881;48.024;8.774;2022-11-12T10:39:41;95284.91;;;13.36;60.69
51829;BME280;37881;48.024;8.774;2022-11-12T10:42:12;95276.13;;;14.26;58.81
51829;BME280;37881;48.024;8.774;2022-11-12T10:44:39;95271.28;;;13.85;59.83
51829;BME280;37881;48.024;8.774;2022-11-12T10:47:34;95272.63;;;13.51;60.17
51829;BME280;37881;48.024;8.774;2022-11-12T10:52:34;95265.78;;;12.71;63.47
51829;BME280;37881;48.024;8.774;2022-11-12T10:55:16;95260.97;;;13.08;61.95
51829;BME280;37881;48.024;8.774;2022-11-12T10:57:43;95254.81;;;12.35;64.92
51829;BME280;37881;48.024;8.774;2022-11-12T11:00:17;95258.34;;;12.36;65.35
51829;BME280;37881;48.024;8.774;2022-11-12T11:02:51;95255.19;;;12.48;65.53
51829;BME280;37881;48.024;8.774;2022-11-12T11:05:35;95254.03;;;12.38;65.59
51829;BME280;37881;48.024;8.774;2022-11-12T11:08:03;95244.94;;;12.70;65.39
51829;BME280;37881;48.024;8.774;2022-11-12T11:10:35;95242.88;;;13.07;63.68
51829;BME280;37881;48.024;8.774;2022-11-12T11:13:20;95245.72;;;12.67;65.12
51829;BME280;37881;48.024;8.774;2022-11-12T11:16:02;95237.03;;;12.87;63.91
51829;BME280;37881;48.024;8.774;2022-11-12T11:18:31;95237.41;;;12.89;64.68
51829;BME280;37881;48.024;8.774;2022-11-12T11:26:36;95235.13;;;12.55;66.80
51829;BME280;37881;48.024;8.774;2022-11-12T11:29:24;95232.38;;;12.51;66.98
51829;BME280;37881;48.024;8.774;2022-11-12T11:32:05;95239.34;;;13.06;64.70
51829;BME280;37881;48.024;8.774;2022-11-12T11:37:25;95220.25;;;12.09;68.43
51829;BME280;37881;48.024;8.774;2022-11-12T11:40:23;95217.47;;;12.13;68.88
51829;BME280;37881;48.024;8.774;2022-11-12T11:45:31;95215.84;;;11.72;70.80
51829;BME280;37881;48.024;8.774;2022-11-12T11:50:41;95212.69;;;11.67;71.67
51829;BME280;37881;48.024;8.774;2022-11-12T11:53:24;95209.56;;;11.83;70.93
51829;BME280;37881;48.024;8.774;2022-11-12T11:55:54;95202.84;;;11.58;72.10
51829;BME280;37881;48.024;8.774;2022-11-12T12:06:27;95195.63;;;11.00;75.08
51829;BME280;37881;48.024;8.774;2022-11-12T12:09:02;95195.13;;;10.69;75.89
51829;BME280;37881;48.024;8.774;2022-11-12T12:11:48;95193.56;;;10.72;76.98
51829;BME280;37881;48.024;8.774;2022-11-12T12:14:36;95195.50;;;10.68;76.89
51829;BME280;37881;48.024;8.774;2022-11-12T12:17:29;95193.19;;;10.77;76.24
51829;BME280;37881;48.024;8.774;2022-11-12T12:20:18;95188.03;;;10.68;78.07
51829;BME280;37881;48.024;8.774;2022-11-12T12:22:51;95187.03;;;11.02;76.52
51829;BME280;37881;48.024;8.774;2022-11-12T12:25:36;95197.09;;;10.76;78.68
51829;BME280;37881;48.024;8.774;2022-11-12T12:31:04;95196.28;;;10.65;79.13
51829;BME280;37881;48.024;8.774;2022-11-12T12:38:41;95180.13;;;10.49;79.57
51829;BME280;37881;48.024;8.774;2022-11-12T12:41:34;95183.59;;;10.42;79.78
51829;BME280;37881;48.024;8.774;2022-11-12T12:44:07;95181.34;;;10.55;79.66
51829;BME280;37881;48.024;8.774;2022-11-12T12:46:48;95175.84;;;10.55;80.34
51829;BME280;37881;48.024;8.774;2022-11-12T12:49:22;95171.56;;;10.61;79.93
51829;BME280;37881;48.024;8.774;2022-11-12T12:51:53;95157.09;;;10.71;79.01
51829;BME280;37881;48.024;8.774;2022-11-12T12:57:02;95160.59;;;10.68;79.97
51829;BME280;37881;48.024;8.774;2022-11-12T12:59:29;95158.25;;;10.67;80.62
51829;BME280;37881;48.024;8.774;2022-11-12T13:02:00;95157.88;;;10.75;80.18
51829;BME280;37881;48.024;8.774;2022-11-12T13:04:54;95165.81;;;10.95;80.02
51829;BME280;37881;48.024;8.774;2022-11-12T13:07:38;95156.31;;;10.78;80.74
51829;BME280;37881;48.024;8.774;2022-11-12T13:10:44;95156.75;;;10.87;79.79
51829;BME280;37881;48.024;8.774;2022-11-12T13:15:49;95158.25;;;10.67;80.79
51829;BME280;37881;48.024;8.774;2022-11-12T13:23:46;95164.44;;;10.49;81.62
51829;BME280;37881;48.024;8.774;2022-11-12T13:29:24;95149.91;;;10.45;81.73
51829;BME280;37881;48.024;8.774;2022-11-12T13:32:26;95142.84;;;10.48;81.05
51829;BME280;37881;48.024;8.774;2022-11-12T13:37:44;95146.75;;;10.39;80.59
51829;BME280;37881;48.024;8.774;2022-11-12T13:40:43;95142.97;;;10.73;79.22
51829;BME280;37881;48.024;8.774;2022-11-12T13:43:36;95145.34;;;10.78;78.50
51829;BME280;37881;48.024;8.774;2022-11-12T13:46:24;95144.56;;;10.77;77.98
51829;BME280;37881;48.024;8.774;2022-11-12T13:49:04;95140.66;;;10.78;78.22
51829;BME280;37881;48.024;8.774;2022-11-12T13:51:44;95140.97;;;10.63;77.84
51829;BME280;37881;48.024;8.774;2022-11-12T13:54:29;95141.81;;;10.77;77.59
51829;BME280;37881;48.024;8.774;2022-11-12T14:02:44;95130.47;;;10.86;80.80
51829;BME280;37881;48.024;8.774;2022-11-12T14:05:16;95125.34;;;10.81;78.95
51829;BME280;37881;48.024;8.774;2022-11-12T14:13:36;95122.09;;;10.54;81.21
51829;BME280;37881;48.024;8.774;2022-11-12T14:22:09;95133.66;;;10.18;85.56
51829;BME280;37881;48.024;8.774;2022-11-12T14:24:38;95132.50;;;10.19;85.08
51829;BME280;37881;48.024;8.774;2022-11-12T14:27:21;95132.47;;;10.16;85.52
51829;BME280;37881;48.024;8.774;2022-11-12T14:29:48;95134.06;;;10.20;86.04
51829;BME280;37881;48.024;8.774;2022-11-12T14:32:15;95135.63;;;10.22;86.11
51829;BME280;37881;48.024;8.774;2022-11-12T14:34:42;95127.72;;;10.09;86.90
51829;BME280;37881;48.024;8.774;2022-11-12T14:37:35;95122.75;;;10.29;86.16
51829;BME280;37881;48.024;8.774;2022-11-12T14:40:15;95122.66;;;10.15;83.70
51829;BME280;37881;48.024;8.774;2022-11-12T14:42:42;95124.56;;;10.00;84.76
51829;BME280;37881;48.024;8.774;2022-11-12T14:45:16;95122.06;;;9.80;86.58
51829;BME280;37881;48.024;8.774;2022-11-12T14:47:46;95121.03;;;9.51;89.60
51829;BME280;37881;48.024;8.774;2022-11-12T14:50:30;95118.59;;;9.39;91.02
51829;BME280;37881;48.024;8.774;2022-11-12T14:53:37;95115.44;;;9.37;91.56
51829;BME280;37881;48.024;8.774;2022-11-12T14:56:03;95108.81;;;9.42;91.82
51829;BME280;37881;48.024;8.774;2022-11-12T14:58:32;95112.91;;;9.17;93.28
51829;BME280;37881;48.024;8.774;2022-11-12T15:01:24;95110.44;;;9.05;94.56